NY31 weather

Rabbit Lane Airport
Phoenix, New York, United States

Public forecast

Using degrees Fahrenheit for public forecast. Weather courtesy of forecast.io.

METAR (pilot weather report)

Closest report is Oswego County Airport, 7.7 nm (14.2 km) N. Retrieved 2019/09/22 05:54 UTC (51 minutes ago):

KFZY 220554Z AUTO VRB03KT 10SM CLR 16/13 A3013 RMK AO2 SLP200 T01610128 10189 20156 56007

TAF (pilot weather forecast)

Closest forecast is Syracuse Hancock International Airport, 13.3 nm (24.7 km) ESE. Retrieved 2019/09/22 06:24 UTC (21 minutes ago):

TAF KSYR 220522Z 2206/2306 13003KT P6SM SKC FM221600 23010KT P6SM BKN040 FM222200 22008KT P6SM SCT050